EPPK weather

Poznań-Kobylnica Airport
Poznań, Greater Poland, Poland

Public forecast

Using degrees Celsius for public forecast. Weather courtesy of forecast.io.

Closest aviation weather report (METAR) to Poznań-Kobylnica Airport

Closest report is Poznań-Ławica Airport, 8.0 nm (14.8 km) W. Retrieved 2019/12/09 20:30 UTC (18 minutes ago):

EPPO 092030Z 22008KT CAVOK 05/02 Q1003

Closest aviation forecast (TAF) to Poznań-Kobylnica Airport

Closest forecast is Poznań-Ławica Airport, 8.0 nm (14.8 km) W. Retrieved 2019/12/09 18:37 UTC (2 hours ago):

TAF EPPO 091730Z 0918/1018 20010KT CAVOK BECMG 0921/0924 28015KT TEMPO 0922/1012 28017G27KT SHRA BKN007 BKN015CB